Time;durP1;ratioP1;P1;durP2;ratioP2;P2;SDS_P1;SDS_P2;PMS_P1;PMS_P2;Temp;Humidity;BMP_temperature;BMP_pressure;BME280_temperature;BME280_humidity;BME280_pressure;Samples;Min_cycle;Max_cycle;Signal;HPM_P1;HPM_P2
2022/07/31 00:02:02;;;;;;;;;;;20.20;99.90;;;;;;5029919;28;20008;-81
2022/07/31 00:04:28;;;;;;;;;;;20.20;99.90;;;;;;5033514;28;20293;-79
2022/07/31 00:06:53;;;;;;;;;;;20.20;99.90;;;;;;5033032;28;19966;-80
2022/07/31 00:09:19;;;;;;;;;;;20.20;99.90;;;;;;5033358;28;19921;-80
2022/07/31 00:11:44;;;;;;;;;;;20.10;99.90;;;;;;5033648;28;19917;-80
2022/07/31 00:14:11;;;;;;;;;;;20.10;99.90;;;;;;5023903;28;19917;-80
2022/07/31 00:16:36;;;;;;;;;;;20.10;99.90;;;;;;5016619;28;19923;-80
2022/07/31 00:19:02;;;;;;;;;;;20.00;99.90;;;;;;5016177;28;19917;-80
2022/07/31 00:21:28;;;;;;;;;;;20.00;99.90;;;;;;5033532;28;20320;-80
2022/07/31 00:23:53;;;;;;;;;;;20.00;99.90;;;;;;5033215;28;19966;-80
2022/07/31 00:26:19;;;;;;;;;;;20.00;99.90;;;;;;5032516;28;19923;-80
2022/07/31 00:28:46;;;;;;;;;;;20.00;99.90;;;;;;5040603;28;19920;-81
2022/07/31 00:31:12;;;;;;;;;;;20.00;99.90;;;;;;5032767;28;19979;-81
2022/07/31 00:33:37;;;;;;;;;;;20.00;99.90;;;;;;5033163;28;20346;-80
2022/07/31 00:36:03;;;;;;;;;;;19.90;99.90;;;;;;5049423;28;19972;-81
2022/07/31 00:38:29;;;;;;;;;;;19.90;99.90;;;;;;5032612;28;19924;-79
2022/07/31 00:40:54;;;;;;;;;;;19.90;99.90;;;;;;5006871;28;19967;-80
2022/07/31 00:43:20;;;;;;;;;;;19.90;99.90;;;;;;5032333;28;19917;-80
2022/07/31 00:45:46;;;;;;;;;;;19.90;99.90;;;;;;5024263;28;19966;-80
2022/07/31 00:48:12;;;;;;;;;;;19.90;99.90;;;;;;5031913;28;20030;-79
2022/07/31 00:50:38;;;;;;;;;;;19.90;99.90;;;;;;5032396;28;19952;-80
2022/07/31 00:53:03;;;;;;;;;;;19.80;99.90;;;;;;5032298;28;20381;-81
2022/07/31 00:55:30;;;;;;;;;;;19.80;99.90;;;;;;5008605;28;19931;-80
2022/07/31 00:57:55;;;;;;;;;;;19.80;99.90;;;;;;5032441;28;19917;-80
2022/07/31 01:00:22;;;;;;;;;;;19.80;99.90;;;;;;5031990;28;20313;-81
2022/07/31 01:02:48;;;;;;;;;;;19.80;99.90;;;;;;5008322;28;19928;-81
2022/07/31 01:05:13;;;;;;;;;;;19.70;99.90;;;;;;5031726;28;19928;-81
2022/07/31 01:07:39;;;;;;;;;;;19.70;99.90;;;;;;5032602;28;20288;-80
2022/07/31 01:10:06;;;;;;;;;;;19.70;99.90;;;;;;4999112;28;19916;-80
2022/07/31 01:12:39;;;;;;;;;;;19.60;99.90;;;;;;5032355;28;20369;-79
2022/07/31 01:15:06;;;;;;;;;;;19.60;99.90;;;;;;5031890;28;20292;-80
2022/07/31 01:17:32;;;;;;;;;;;19.60;99.90;;;;;;5032040;28;19917;-80
2022/07/31 01:19:58;;;;;;;;;;;19.50;99.90;;;;;;5032024;28;20020;-80
2022/07/31 01:22:39;;;;;;;;;;;19.50;99.90;;;;;;5015064;28;20047;-80
2022/07/31 01:25:14;;;;;;;;;;;19.50;99.90;;;;;;5030602;28;20038;-80
2022/07/31 01:27:39;;;;;;;;;;;19.50;99.90;;;;;;5030230;28;19917;-81
2022/07/31 01:30:05;;;;;;;;;;;19.50;99.90;;;;;;5031472;28;19939;-80
2022/07/31 01:32:33;;;;;;;;;;;19.50;99.90;;;;;;5031985;28;19917;-80
2022/07/31 01:35:02;;;;;;;;;;;19.40;99.90;;;;;;5031668;28;19917;-79
2022/07/31 01:37:46;;;;;;;;;;;19.30;99.90;;;;;;5031482;28;19961;-80
2022/07/31 01:40:34;;;;;;;;;;;19.30;99.90;;;;;;5031165;28;19963;-79
2022/07/31 01:43:20;;;;;;;;;;;19.30;99.90;;;;;;5030241;28;19967;-79
2022/07/31 01:45:48;;;;;;;;;;;19.30;99.90;;;;;;5030521;28;20041;-78
2022/07/31 01:48:14;;;;;;;;;;;19.30;99.90;;;;;;5031512;28;20323;-79
2022/07/31 01:50:41;;;;;;;;;;;19.30;99.90;;;;;;5047892;28;19954;-78
2022/07/31 01:53:07;;;;;;;;;;;19.20;99.90;;;;;;5030919;28;19972;-80
2022/07/31 01:55:33;;;;;;;;;;;19.30;99.90;;;;;;5031281;28;19924;-79
2022/07/31 01:58:00;;;;;;;;;;;19.20;99.90;;;;;;5031264;28;19917;-80
2022/07/31 02:00:25;;;;;;;;;;;19.20;99.90;;;;;;5031316;28;20415;-80
2022/07/31 02:02:55;;;;;;;;;;;19.20;99.90;;;;;;4998531;28;19916;-80
2022/07/31 02:05:21;;;;;;;;;;;19.20;99.90;;;;;;5030749;28;19925;-80
2022/07/31 02:07:47;;;;;;;;;;;19.20;99.90;;;;;;5031025;28;19921;-79
2022/07/31 02:10:14;;;;;;;;;;;19.10;99.90;;;;;;5030784;28;19963;-79
2022/07/31 02:12:40;;;;;;;;;;;19.10;99.90;;;;;;5031186;28;19923;-80
2022/07/31 02:15:08;;;;;;;;;;;19.10;99.90;;;;;;5031499;28;19959;-79
2022/07/31 02:17:34;;;;;;;;;;;19.10;99.90;;;;;;5031626;28;20435;-80
2022/07/31 02:20:00;;;;;;;;;;;19.10;99.90;;;;;;5031274;28;19956;-79
2022/07/31 02:22:26;;;;;;;;;;;19.10;99.90;;;;;;5030851;28;20417;-79
2022/07/31 02:24:51;;;;;;;;;;;19.10;99.90;;;;;;5030178;28;20003;-80
2022/07/31 02:27:17;;;;;;;;;;;19.10;99.90;;;;;;5030482;28;19924;-80
2022/07/31 02:29:44;;;;;;;;;;;19.10;99.90;;;;;;5028291;28;20047;-79
2022/07/31 02:32:10;;;;;;;;;;;19.10;99.90;;;;;;5030418;28;20004;-79
2022/07/31 02:34:36;;;;;;;;;;;19.10;99.90;;;;;;5030800;28;19917;-79
2022/07/31 02:37:03;;;;;;;;;;;19.10;99.90;;;;;;5030685;28;19921;-79
2022/07/31 02:39:30;;;;;;;;;;;19.10;99.90;;;;;;5013646;28;20745;-79
2022/07/31 02:41:58;;;;;;;;;;;19.10;99.90;;;;;;5030354;28;20033;-80
2022/07/31 02:44:24;;;;;;;;;;;19.10;99.90;;;;;;5013760;28;20365;-81
2022/07/31 02:46:49;;;;;;;;;;;19.00;99.90;;;;;;5030841;28;19983;-80
2022/07/31 02:49:15;;;;;;;;;;;19.10;99.90;;;;;;5030282;28;19928;-81
2022/07/31 02:51:41;;;;;;;;;;;19.00;99.90;;;;;;5030249;28;19921;-81
2022/07/31 02:54:07;;;;;;;;;;;19.00;99.90;;;;;;5030745;28;19921;-81
2022/07/31 02:56:32;;;;;;;;;;;19.00;99.90;;;;;;5029873;28;19968;-80
2022/07/31 02:58:58;;;;;;;;;;;19.00;99.90;;;;;;5029733;28;20689;-80
2022/07/31 03:01:23;;;;;;;;;;;19.00;99.90;;;;;;5023903;28;19901;-79
2022/07/31 03:03:49;;;;;;;;;;;19.00;99.90;;;;;;5013903;28;19942;-79
2022/07/31 03:06:15;;;;;;;;;;;19.00;99.90;;;;;;5029658;28;19928;-80
2022/07/31 03:08:41;;;;;;;;;;;19.00;99.90;;;;;;5013907;28;19924;-80
2022/07/31 03:11:07;;;;;;;;;;;19.00;99.90;;;;;;5030690;28;19921;-81
2022/07/31 03:13:33;;;;;;;;;;;18.90;99.90;;;;;;5030044;28;20007;-80
2022/07/31 03:15:59;;;;;;;;;;;19.00;99.90;;;;;;5030182;28;19917;-80
2022/07/31 03:18:25;;;;;;;;;;;19.00;99.90;;;;;;5030160;28;19940;-81
2022/07/31 03:20:51;;;;;;;;;;;19.00;99.90;;;;;;5013727;28;19921;-79
2022/07/31 03:23:18;;;;;;;;;;;19.00;99.90;;;;;;5020504;28;20385;-80
2022/07/31 03:25:44;;;;;;;;;;;19.00;99.90;;;;;;5030171;28;19921;-80
2022/07/31 03:28:10;;;;;;;;;;;19.00;99.90;;;;;;5030520;28;20429;-79
2022/07/31 03:30:36;;;;;;;;;;;19.00;99.90;;;;;;5030042;28;19983;-80
2022/07/31 03:33:02;;;;;;;;;;;19.00;99.90;;;;;;5018316;28;19952;-80
2022/07/31 03:35:28;;;;;;;;;;;18.90;99.90;;;;;;5029905;28;19921;-80
2022/07/31 03:37:54;;;;;;;;;;;18.90;99.90;;;;;;5033891;28;19952;-80
2022/07/31 03:40:19;;;;;;;;;;;18.90;99.90;;;;;;5033230;28;19917;-80
2022/07/31 03:42:47;;;;;;;;;;;18.90;99.90;;;;;;5034197;28;20369;-80
2022/07/31 03:45:13;;;;;;;;;;;18.90;99.90;;;;;;5033667;28;19921;-80
2022/07/31 03:47:39;;;;;;;;;;;18.80;99.90;;;;;;5034036;28;19916;-80
2022/07/31 03:50:05;;;;;;;;;;;18.80;99.90;;;;;;5034027;28;19928;-80
2022/07/31 03:52:31;;;;;;;;;;;18.70;99.90;;;;;;5033475;28;20336;-81
2022/07/31 03:54:57;;;;;;;;;;;18.70;99.90;;;;;;5033495;28;19999;-81
2022/07/31 03:57:25;;;;;;;;;;;18.60;99.90;;;;;;5025173;28;20362;-81
2022/07/31 03:59:51;;;;;;;;;;;18.60;99.90;;;;;;5033504;28;19957;-80
2022/07/31 04:02:16;;;;;;;;;;;18.50;99.90;;;;;;5033241;28;20002;-80
2022/07/31 04:04:42;;;;;;;;;;;18.50;99.90;;;;;;5033070;28;20039;-80
2022/07/31 04:07:08;;;;;;;;;;;18.50;99.90;;;;;;5017007;28;19927;-81
2022/07/31 04:09:33;;;;;;;;;;;18.50;99.90;;;;;;5032771;28;19943;-81
2022/07/31 04:11:59;;;;;;;;;;;18.50;99.90;;;;;;5033141;28;20005;-80
2022/07/31 04:14:25;;;;;;;;;;;18.40;99.90;;;;;;5032733;28;19917;-80
2022/07/31 04:16:50;;;;;;;;;;;18.30;99.90;;;;;;5033289;28;19916;-80
2022/07/31 04:19:16;;;;;;;;;;;18.30;99.90;;;;;;5033470;28;19967;-81
2022/07/31 04:21:41;;;;;;;;;;;18.30;99.90;;;;;;5032676;28;19959;-80
2022/07/31 04:24:07;;;;;;;;;;;18.20;99.90;;;;;;5033276;28;19932;-80
2022/07/31 04:26:33;;;;;;;;;;;18.20;99.90;;;;;;5032988;28;19976;-81
2022/07/31 04:28:58;;;;;;;;;;;18.20;99.90;;;;;;5033187;28;19952;-80
2022/07/31 04:31:24;;;;;;;;;;;18.10;99.90;;;;;;5032485;28;19960;-80
2022/07/31 04:33:50;;;;;;;;;;;18.20;99.90;;;;;;5032696;28;19939;-80
2022/07/31 04:36:18;;;;;;;;;;;18.10;99.90;;;;;;5032859;28;19971;-81
2022/07/31 04:38:43;;;;;;;;;;;18.20;99.90;;;;;;5016118;28;19917;-80
2022/07/31 04:41:09;;;;;;;;;;;18.20;99.90;;;;;;5032667;28;19924;-80
2022/07/31 04:43:35;;;;;;;;;;;18.20;99.90;;;;;;5026508;28;19917;-80
2022/07/31 04:46:00;;;;;;;;;;;18.30;99.90;;;;;;5032527;28;20396;-81
2022/07/31 04:48:26;;;;;;;;;;;18.30;99.90;;;;;;5048017;28;20423;-81
2022/07/31 04:50:51;;;;;;;;;;;18.40;99.90;;;;;;5032867;28;19917;-81
2022/07/31 04:53:17;;;;;;;;;;;18.40;99.90;;;;;;5032553;28;20285;-80
2022/07/31 04:56:31;;;;;;;;;;;18.50;99.90;;;;;;5031967;28;19924;-81
2022/07/31 04:58:28;;;;;;;;;;;18.50;99.90;;;;;;5029592;28;19920;-79
2022/07/31 05:00:53;;;;;;;;;;;18.50;99.90;;;;;;5032709;28;19924;-80
2022/07/31 05:03:19;;;;;;;;;;;18.50;99.90;;;;;;5011168;28;19923;-80
2022/07/31 05:05:45;;;;;;;;;;;18.50;99.90;;;;;;5031968;28;19922;-80
2022/07/31 05:08:10;;;;;;;;;;;18.50;99.90;;;;;;5032322;28;20361;-80
2022/07/31 05:13:20;;;;;;;;;;;18.60;99.90;;;;;;5032696;28;20411;-79
2022/07/31 05:15:46;;;;;;;;;;;18.60;99.90;;;;;;5032236;28;19917;-80
2022/07/31 05:18:11;;;;;;;;;;;18.60;99.90;;;;;;5032056;28;19917;-80
2022/07/31 05:20:37;;;;;;;;;;;18.60;99.90;;;;;;5031881;28;19920;-80
2022/07/31 05:23:02;;;;;;;;;;;18.70;99.90;;;;;;5032016;28;19916;-81
2022/07/31 05:25:28;;;;;;;;;;;18.70;99.90;;;;;;5031678;28;20008;-81
2022/07/31 05:27:53;;;;;;;;;;;18.80;99.90;;;;;;5007949;28;19921;-81
2022/07/31 05:30:19;;;;;;;;;;;18.80;99.90;;;;;;5002725;28;19959;-80
2022/07/31 05:32:45;;;;;;;;;;;18.80;99.90;;;;;;5031585;28;19921;-80
2022/07/31 05:35:10;;;;;;;;;;;18.90;99.90;;;;;;5031848;28;19917;-80
2022/07/31 05:37:36;;;;;;;;;;;18.80;99.90;;;;;;5031001;28;19996;-80
2022/07/31 05:40:01;;;;;;;;;;;18.90;99.90;;;;;;5031392;28;20046;-80
2022/07/31 05:42:27;;;;;;;;;;;18.90;99.90;;;;;;5014810;28;19921;-80
2022/07/31 05:44:52;;;;;;;;;;;18.90;99.90;;;;;;5026930;28;20016;-80
2022/07/31 05:47:18;;;;;;;;;;;18.90;99.90;;;;;;5026685;28;19944;-80
2022/07/31 05:49:43;;;;;;;;;;;18.90;99.90;;;;;;5031336;28;19920;-80
2022/07/31 05:52:09;;;;;;;;;;;18.90;99.90;;;;;;5031359;28;20012;-80
2022/07/31 05:54:34;;;;;;;;;;;18.90;99.90;;;;;;5030884;28;19917;-80
2022/07/31 05:57:00;;;;;;;;;;;19.00;99.90;;;;;;5031882;28;20316;-79
2022/07/31 05:59:26;;;;;;;;;;;19.00;99.90;;;;;;5030578;28;19940;-80
2022/07/31 06:01:51;;;;;;;;;;;19.00;99.90;;;;;;4998070;28;19924;-80
2022/07/31 06:04:17;;;;;;;;;;;19.00;99.90;;;;;;5031118;28;20016;-80
2022/07/31 06:06:42;;;;;;;;;;;19.00;99.90;;;;;;4998020;28;19917;-80
2022/07/31 06:09:08;;;;;;;;;;;19.10;99.90;;;;;;5031191;28;20304;-80
2022/07/31 06:11:33;;;;;;;;;;;19.10;99.90;;;;;;5030658;28;20365;-80
2022/07/31 06:13:59;;;;;;;;;;;19.20;99.90;;;;;;5031104;28;19917;-81
2022/07/31 06:16:25;;;;;;;;;;;19.20;99.90;;;;;;5031445;28;19948;-81
2022/07/31 06:18:51;;;;;;;;;;;19.20;99.90;;;;;;5030811;28;19924;-81
2022/07/31 06:21:16;;;;;;;;;;;19.20;99.90;;;;;;5030963;28;19917;-81
2022/07/31 06:23:42;;;;;;;;;;;19.30;99.90;;;;;;5030266;28;20554;-81
2022/07/31 06:26:07;;;;;;;;;;;19.30;99.90;;;;;;5030847;28;19984;-81
2022/07/31 06:28:33;;;;;;;;;;;19.40;99.90;;;;;;5030753;28;19955;-81
2022/07/31 06:30:58;;;;;;;;;;;19.40;99.90;;;;;;5031082;28;19917;-80
2022/07/31 06:33:24;;;;;;;;;;;19.50;99.90;;;;;;5014773;28;19968;-80
2022/07/31 06:35:50;;;;;;;;;;;19.50;99.90;;;;;;5030193;28;19921;-80
2022/07/31 06:38:15;;;;;;;;;;;19.60;99.90;;;;;;5030667;28;20369;-80
2022/07/31 06:40:41;;;;;;;;;;;19.70;99.90;;;;;;5014115;28;19920;-80
2022/07/31 06:43:06;;;;;;;;;;;19.80;99.90;;;;;;5030762;28;20011;-80
2022/07/31 06:45:32;;;;;;;;;;;19.90;99.90;;;;;;5013764;28;19947;-79
2022/07/31 06:47:57;;;;;;;;;;;19.90;99.90;;;;;;5030486;28;19925;-80
2022/07/31 06:50:23;;;;;;;;;;;20.00;99.90;;;;;;5030945;28;19956;-80
2022/07/31 06:52:48;;;;;;;;;;;20.00;99.90;;;;;;5029874;28;20012;-80
2022/07/31 06:55:14;;;;;;;;;;;19.90;99.90;;;;;;5045722;28;19924;-81
2022/07/31 06:57:40;;;;;;;;;;;20.00;99.90;;;;;;5030248;28;19970;-81
2022/07/31 07:00:06;;;;;;;;;;;20.00;99.90;;;;;;5030440;28;20000;-80
2022/07/31 07:02:31;;;;;;;;;;;20.00;99.90;;;;;;5030067;28;19970;-80
2022/07/31 07:04:57;;;;;;;;;;;20.10;99.90;;;;;;4999515;28;20417;-79
2022/07/31 07:07:22;;;;;;;;;;;20.10;99.90;;;;;;5030472;28;19924;-78
2022/07/31 07:09:48;;;;;;;;;;;20.20;99.90;;;;;;5017978;28;19940;-82
2022/07/31 07:12:14;;;;;;;;;;;20.20;99.90;;;;;;5032960;28;20028;-84
2022/07/31 07:14:39;;;;;;;;;;;20.20;99.90;;;;;;5034578;28;19917;-83
2022/07/31 07:17:05;;;;;;;;;;;20.20;99.90;;;;;;5031163;28;19932;-80
2022/07/31 07:19:31;;;;;;;;;;;20.30;99.90;;;;;;5034343;28;19923;-82
2022/07/31 07:21:56;;;;;;;;;;;20.30;99.90;;;;;;5018023;28;19917;-82
2022/07/31 07:24:22;;;;;;;;;;;20.30;99.90;;;;;;5034816;28;19925;-82
2022/07/31 07:26:47;;;;;;;;;;;20.30;99.90;;;;;;5027303;28;19967;-82
2022/07/31 07:29:13;;;;;;;;;;;20.30;99.90;;;;;;5018170;28;19923;-83
2022/07/31 07:31:38;;;;;;;;;;;20.40;99.90;;;;;;5034245;28;20437;-81
2022/07/31 07:34:04;;;;;;;;;;;20.40;99.90;;;;;;5034223;28;19917;-83
2022/07/31 07:36:30;;;;;;;;;;;20.40;99.90;;;;;;5034157;28;20055;-83
2022/07/31 07:38:56;;;;;;;;;;;20.50;99.90;;;;;;5017717;28;20426;-80
2022/07/31 07:41:22;;;;;;;;;;;20.50;99.90;;;;;;5034110;28;19939;-82
2022/07/31 07:43:48;;;;;;;;;;;20.50;99.90;;;;;;5033942;28;19925;-82
2022/07/31 07:46:14;;;;;;;;;;;20.50;99.90;;;;;;5026709;28;19928;-83
2022/07/31 07:48:39;;;;;;;;;;;20.60;99.90;;;;;;5031584;28;19917;-82
2022/07/31 07:51:05;;;;;;;;;;;20.60;99.90;;;;;;5033998;28;19921;-83
2022/07/31 07:53:30;;;;;;;;;;;20.80;99.90;;;;;;5015835;28;19921;-82
2022/07/31 07:55:57;;;;;;;;;;;20.80;99.90;;;;;;5034507;28;19999;-82
2022/07/31 07:58:23;;;;;;;;;;;21.10;99.90;;;;;;5031668;28;19959;-83
2022/07/31 08:00:48;;;;;;;;;;;21.60;99.90;;;;;;5033777;28;20356;-83
2022/07/31 08:03:15;;;;;;;;;;;22.10;99.90;;;;;;5017201;28;19956;-84
2022/07/31 08:05:41;;;;;;;;;;;22.50;99.90;;;;;;5033320;28;20005;-84
2022/07/31 08:08:06;;;;;;;;;;;22.60;99.90;;;;;;5033294;28;20381;-83
2022/07/31 08:10:32;;;;;;;;;;;22.80;99.90;;;;;;5009959;28;19917;-84
2022/07/31 08:12:58;;;;;;;;;;;22.80;99.90;;;;;;5021010;28;19927;-83
2022/07/31 08:15:24;;;;;;;;;;;22.90;99.90;;;;;;5000816;28;19932;-84
2022/07/31 08:17:50;;;;;;;;;;;22.90;99.90;;;;;;5028543;28;19917;-83
2022/07/31 08:20:15;;;;;;;;;;;23.00;99.90;;;;;;5033878;28;19967;-83
2022/07/31 08:22:41;;;;;;;;;;;22.80;99.90;;;;;;5032237;28;19917;-84
2022/07/31 08:25:07;;;;;;;;;;;22.70;99.90;;;;;;5033300;28;19925;-84
2022/07/31 08:27:32;;;;;;;;;;;22.60;99.90;;;;;;5033568;28;19921;-84
2022/07/31 08:29:59;;;;;;;;;;;22.50;99.90;;;;;;5030894;28;19917;-83
2022/07/31 08:32:25;;;;;;;;;;;22.40;99.90;;;;;;5033560;28;19940;-83
2022/07/31 08:34:51;;;;;;;;;;;22.40;99.90;;;;;;5016546;28;19917;-84
2022/07/31 08:37:20;;;;;;;;;;;22.40;99.90;;;;;;5033245;28;19925;-83
2022/07/31 08:39:47;;;;;;;;;;;22.30;99.90;;;;;;5032745;28;19917;-83
2022/07/31 08:42:12;;;;;;;;;;;22.30;99.90;;;;;;5033545;28;20339;-83
2022/07/31 08:44:38;;;;;;;;;;;22.40;99.90;;;;;;5032975;28;19921;-83
2022/07/31 08:47:05;;;;;;;;;;;22.30;99.90;;;;;;5016573;28;20292;-83
2022/07/31 08:49:32;;;;;;;;;;;22.10;99.90;;;;;;5019724;28;19924;-83
2022/07/31 08:51:58;;;;;;;;;;;22.20;99.90;;;;;;5032020;28;19984;-87
2022/07/31 08:54:25;;;;;;;;;;;22.00;99.90;;;;;;5007145;28;20361;-88
2022/07/31 08:56:51;;;;;;;;;;;21.90;99.90;;;;;;5024487;28;19924;-85
2022/07/31 08:59:18;;;;;;;;;;;21.90;99.90;;;;;;5012544;28;19979;-88
2022/07/31 09:01:44;;;;;;;;;;;21.90;99.90;;;;;;5017276;28;19917;-86
2022/07/31 09:04:10;;;;;;;;;;;21.80;99.90;;;;;;5034929;28;19967;-88
2022/07/31 09:06:36;;;;;;;;;;;21.60;99.90;;;;;;5034857;28;20324;-86
2022/07/31 09:09:02;;;;;;;;;;;21.50;99.90;;;;;;5001649;28;19951;-85
2022/07/31 09:11:28;;;;;;;;;;;21.50;99.90;;;;;;5017090;28;19927;-85
2022/07/31 09:14:01;;;;;;;;;;;21.50;99.90;;;;;;5024372;28;20358;-86
2022/07/31 09:16:27;;;;;;;;;;;21.40;99.90;;;;;;5031575;28;19917;-86
2022/07/31 09:18:57;;;;;;;;;;;21.40;99.90;;;;;;5016787;28;19940;-86
2022/07/31 09:21:23;;;;;;;;;;;21.30;99.90;;;;;;5034080;28;20373;-87
2022/07/31 09:23:48;;;;;;;;;;;21.20;99.90;;;;;;5033763;28;19917;-86
2022/07/31 09:26:14;;;;;;;;;;;21.20;99.90;;;;;;5047684;28;19928;-85
2022/07/31 09:28:43;;;;;;;;;;;21.20;99.90;;;;;;5034528;28;20300;-86
2022/07/31 09:31:09;;;;;;;;;;;21.20;99.90;;;;;;5016868;28;20012;-85
2022/07/31 09:33:38;;;;;;;;;;;21.20;99.90;;;;;;5033174;28;19947;-83
2022/07/31 09:36:04;;;;;;;;;;;21.10;99.90;;;;;;5033284;28;20009;-83
2022/07/31 09:38:31;;;;;;;;;;;21.00;99.90;;;;;;5032657;28;20396;-83
2022/07/31 09:41:07;;;;;;;;;;;21.00;99.90;;;;;;5032139;28;19921;-81
2022/07/31 09:43:33;;;;;;;;;;;20.90;99.90;;;;;;5031308;28;20967;-83
2022/07/31 09:45:59;;;;;;;;;;;20.80;99.90;;;;;;5032813;28;20336;-84
2022/07/31 09:48:25;;;;;;;;;;;20.80;99.90;;;;;;5034805;28;20421;-82
2022/07/31 09:51:44;;;;;;;13.55;10.93;;;20.80;99.90;;;;;;5161461;27;20169;-82
2022/07/31 09:54:27;;;;;;;16.25;11.32;;;20.70;99.90;;;;;;5157950;27;20108;-84
2022/07/31 09:56:53;;;;;;;14.45;11.20;;;20.80;99.90;;;;;;5164995;27;20555;-83
2022/07/31 09:59:19;;;;;;;16.08;11.57;;;20.70;99.90;;;;;;5133014;27;20034;-83
2022/07/31 10:01:47;;;;;;;14.82;11.48;;;20.60;99.90;;;;;;5152138;27;20061;-81
2022/07/31 10:04:16;;;;;;;18.05;12.77;;;20.60;99.90;;;;;;5165167;27;20068;-81
2022/07/31 10:06:49;;;;;;;15.65;11.52;;;20.50;99.90;;;;;;5159815;27;20052;-81
2022/07/31 10:09:18;;;;;;;17.88;12.95;;;20.50;99.90;;;;;;5143577;27;20066;-81
2022/07/31 10:11:46;;;;;;;15.27;12.40;;;20.50;99.90;;;;;;5165354;27;20386;-80
2022/07/31 10:14:19;;;;;;;18.45;13.63;;;20.40;99.90;;;;;;5160998;27;20109;-80
2022/07/31 10:16:47;;;;;;;15.45;12.40;;;20.40;99.90;;;;;;5150156;27;20039;-81
2022/07/31 10:19:14;;;;;;;17.52;13.27;;;20.60;99.90;;;;;;5154471;27;20058;-81
2022/07/31 10:21:55;;;;;;;15.63;12.75;;;20.70;99.90;;;;;;5156883;27;20050;-81
2022/07/31 10:24:22;;;;;;;15.93;12.40;;;20.80;99.90;;;;;;5156070;27;20027;-82
2022/07/31 10:26:48;;;;;;;16.58;13.73;;;20.80;99.90;;;;;;5158628;27;20092;-81
2022/07/31 10:29:15;;;;;;;;;;;20.80;99.90;;;;;;5154345;27;20436;-80
2022/07/31 10:31:41;;;;;;;16.73;13.30;;;20.90;99.90;;;;;;5155496;27;19915;-80
2022/07/31 10:34:07;;;;;;;18.67;14.05;;;20.80;99.90;;;;;;5147347;27;20408;-80
2022/07/31 10:36:36;;;;;;;22.27;14.32;;;20.70;99.90;;;;;;5136164;27;20491;-80
2022/07/31 10:39:18;;;;;;;21.50;15.05;;;20.50;99.90;;;;;;5140511;27;20122;-80
2022/07/31 10:42:09;;;;;;;19.33;15.85;;;20.40;99.90;;;;;;5151686;27;20123;-80
2022/07/31 10:44:49;;;;;;;19.98;15.18;;;20.40;99.90;;;;;;5157375;27;20122;-83
2022/07/31 10:47:15;;;;;;;21.85;16.73;;;20.30;99.90;;;;;;5153900;27;20409;-83
2022/07/31 10:49:42;;;;;;;;;;;20.30;99.90;;;;;;5138265;27;20054;-82
2022/07/31 10:52:08;;;;;;;21.27;16.25;;;20.30;99.90;;;;;;5157113;27;19959;-81
2022/07/31 10:54:46;;;;;;;20.40;15.85;;;20.20;99.90;;;;;;5156839;27;20038;-81
2022/07/31 10:57:25;;;;;;;20.60;16.77;;;20.20;99.90;;;;;;5147447;27;20091;-80
2022/07/31 10:59:51;;;;;;;23.83;17.38;;;20.20;99.90;;;;;;5145927;27;20121;-81
2022/07/31 11:02:31;;;;;;;22.08;16.77;;;20.10;99.90;;;;;;5148512;27;20123;-83
2022/07/31 11:05:22;;;;;;;22.52;16.10;;;20.10;99.90;;;;;;5144581;27;20035;-80
2022/07/31 11:08:00;;;;;;;29.33;18.45;;;20.10;99.90;;;;;;5145937;27;20030;-78
2022/07/31 11:10:26;;;;;;;18.45;16.08;;;20.10;99.90;;;;;;5126171;27;20039;-76
2022/07/31 11:13:06;;;;;;;21.05;16.33;;;20.10;99.90;;;;;;5138365;27;20035;-79
2022/07/31 11:15:33;;;;;;;28.38;19.13;;;20.10;99.90;;;;;;5152530;27;20147;-79
2022/07/31 11:18:09;;;;;;;26.67;19.30;;;20.10;99.90;;;;;;5135768;27;20060;-79
2022/07/31 11:20:35;;;;;;;20.30;17.33;;;20.10;99.90;;;;;;5127833;27;20446;-79
2022/07/31 11:23:03;;;;;;;20.25;17.42;;;20.10;99.90;;;;;;5120016;27;20200;-79
2022/07/31 11:25:32;;;;;;;22.63;18.45;;;20.20;99.90;;;;;;5152933;27;20049;-80
2022/07/31 11:28:10;;;;;;;21.80;18.73;;;20.10;99.90;;;;;;5153336;27;20038;-80
2022/07/31 11:30:58;;;;;;;25.90;19.70;;;20.10;99.90;;;;;;5153105;27;20117;-80
2022/07/31 11:33:39;;;;;;;20.73;16.73;;;19.90;99.90;;;;;;5132491;27;20050;-80
2022/07/31 11:36:07;;;;;;;19.42;15.98;;;19.90;99.90;;;;;;5130333;27;20039;-80
2022/07/31 11:38:34;;;;;;;17.67;14.90;;;19.90;99.90;;;;;;5152887;27;20038;-80
2022/07/31 11:41:00;;;;;;;22.05;17.13;;;19.70;99.90;;;;;;5136032;27;20367;-80
2022/07/31 11:43:25;;;;;;;21.65;17.98;;;19.70;99.90;;;;;;5135469;27;20088;-80
2022/07/31 11:45:53;;;;;;;22.85;18.38;;;19.60;99.90;;;;;;5152793;27;20038;-80
2022/07/31 11:48:20;;;;;;;25.08;19.25;;;19.60;99.90;;;;;;5129348;27;20035;-80
2022/07/31 11:50:48;;;;;;;20.42;17.40;;;19.60;99.90;;;;;;5114587;27;20047;-80
2022/07/31 11:53:14;;;;;;;23.33;19.13;;;19.60;99.90;;;;;;5152558;27;20577;-81
2022/07/31 11:55:49;;;;;;;25.52;19.63;;;19.60;99.90;;;;;;5153251;27;20034;-81
2022/07/31 11:58:16;;;;;;;26.85;20.05;;;19.50;99.90;;;;;;5135176;27;20114;-81
2022/07/31 12:00:56;;;;;;;29.25;22.25;;;19.50;99.90;;;;;;5135861;27;20118;-81
2022/07/31 12:03:42;;;;;;;26.27;19.95;;;19.50;99.90;;;;;;5152133;27;20073;-81
2022/07/31 12:06:09;;;;;;;25.15;19.55;;;19.50;99.90;;;;;;5134955;27;20053;-82
2022/07/31 12:08:36;;;;;;;21.10;17.98;;;19.40;99.90;;;;;;5135236;27;20053;-83
2022/07/31 12:11:04;;;;;;;23.58;18.65;;;19.40;99.90;;;;;;5147742;27;20440;-83
2022/07/31 12:13:33;;;;;;;24.38;19.02;;;19.40;99.90;;;;;;5143327;27;20070;-84
2022/07/31 12:16:04;;;;;;;23.65;19.30;;;19.40;99.90;;;;;;5117462;27;20027;-83
2022/07/31 12:18:52;;;;;;;23.98;18.70;;;19.30;99.90;;;;;;5151260;27;20394;-83
2022/07/31 12:21:19;;;;;;;20.15;16.00;;;19.30;99.90;;;;;;5134051;27;20164;-83
2022/07/31 12:23:48;;;;;;;18.25;15.38;;;19.30;99.90;;;;;;5118486;27;20418;-83
2022/07/31 12:26:22;;;;;;;21.10;15.93;;;19.30;99.90;;;;;;5133874;27;20035;-83
2022/07/31 12:29:07;;;;;;;20.35;16.10;;;19.30;99.90;;;;;;5131559;27;20039;-83
2022/07/31 12:31:48;;;;;;;20.48;16.77;;;19.20;99.90;;;;;;5134269;27;20034;-83
2022/07/31 12:34:37;;;;;;;21.67;17.13;;;19.10;99.90;;;;;;5151885;27;20155;-84
2022/07/31 12:37:14;;;;;;;24.73;18.42;;;19.10;99.90;;;;;;5138432;27;20035;-83
2022/07/31 12:39:46;;;;;;;23.40;16.65;;;19.10;99.90;;;;;;5136519;27;20058;-84
2022/07/31 12:42:26;;;;;;;24.85;18.17;;;19.10;99.90;;;;;;5138646;27;20050;-82
2022/07/31 12:44:55;;;;;;;31.35;19.05;;;19.00;99.90;;;;;;5133453;27;20046;-82
2022/07/31 12:47:25;;;;;;;24.08;18.38;;;19.10;99.90;;;;;;5136210;27;20562;-82
2022/07/31 12:49:52;;;;;;;24.52;18.10;;;19.10;99.90;;;;;;5149364;27;20054;-83
2022/07/31 12:52:18;;;;;;;23.52;18.27;;;19.10;99.90;;;;;;5134287;27;20090;-82
2022/07/31 12:54:44;;;;;;;23.75;19.15;;;19.10;99.90;;;;;;5134801;27;20127;-82
2022/07/31 12:57:10;;;;;;;24.38;18.35;;;19.10;99.90;;;;;;5151768;27;20118;-82
2022/07/31 12:59:36;;;;;;;26.95;17.83;;;19.20;99.90;;;;;;5151200;27;20379;-81
2022/07/31 13:02:03;;;;;;;27.70;20.13;;;19.20;99.90;;;;;;5143460;27;20035;-82
2022/07/31 13:04:29;;;;;;;31.75;21.98;;;19.20;99.90;;;;;;5134592;27;20039;-82
2022/07/31 13:06:55;;;;;;;31.98;21.83;;;19.20;99.90;;;;;;5146527;27;20042;-82
2022/07/31 13:09:21;;;;;;;36.33;24.77;;;19.20;99.90;;;;;;5151023;27;20478;-82
2022/07/31 13:11:46;;;;;;;35.35;26.10;;;19.20;99.90;;;;;;5140002;27;20034;-82
2022/07/31 13:14:12;;;;;;;37.67;25.50;;;19.20;99.90;;;;;;5133416;27;20111;-81
2022/07/31 13:16:38;;;;;;;37.63;26.38;;;19.20;99.90;;;;;;5130743;27;20479;-81
2022/07/31 13:19:06;;;;;;;32.55;24.00;;;19.20;99.90;;;;;;5111721;27;20063;-81
2022/07/31 13:21:32;;;;;;;33.28;24.83;;;19.10;99.90;;;;;;5131399;27;20042;-82
2022/07/31 13:23:58;;;;;;;32.58;23.80;;;19.10;99.90;;;;;;5122288;27;20137;-82
2022/07/31 13:26:25;;;;;;;30.02;22.25;;;19.10;99.90;;;;;;5151026;27;20042;-82
2022/07/31 13:28:51;;;;;;;31.05;22.75;;;19.10;99.90;;;;;;5143686;27;20137;-82
2022/07/31 13:31:17;;;;;;;34.80;22.90;;;19.10;99.90;;;;;;5119598;27;20126;-82
2022/07/31 13:33:43;;;;;;;31.55;21.95;;;19.10;99.90;;;;;;5150499;27;20035;-81
2022/07/31 13:36:09;;;;;;;27.30;19.63;;;19.10;99.90;;;;;;5135368;27;20399;-81
2022/07/31 13:38:34;;;;;;;24.90;17.95;;;19.10;99.90;;;;;;5115224;27;20039;-81
2022/07/31 13:43:44;;;;;;;19.38;14.50;;;19.20;99.90;;;;;;5149514;27;20436;-81
2022/07/31 13:46:10;;;;;;;18.05;14.07;;;19.30;99.90;;;;;;5148885;27;20034;-82
2022/07/31 13:48:36;;;;;;;19.65;14.15;;;19.30;99.90;;;;;;5150189;27;20130;-82
2022/07/31 13:51:02;;;;;;;19.52;13.98;;;19.40;99.90;;;;;;5122798;27;20473;-81
2022/07/31 13:53:28;;;;;;;15.88;11.43;;;19.30;99.90;;;;;;5132101;27;20077;-82